createdAt,value
2018-04-02T00:00:53.792Z,4.19
2018-04-02T00:01:59.542Z,4.24
2018-04-02T00:03:06.052Z,4.29
2018-04-02T00:04:11.816Z,4.31
2018-04-02T00:05:17.552Z,4.32
2018-04-02T00:06:23.321Z,4.33
2018-04-02T00:07:29.846Z,4.36
2018-04-02T00:08:35.602Z,4.39
2018-04-02T00:09:41.353Z,4.42
2018-04-02T00:10:47.870Z,4.45
2018-04-02T00:11:53.397Z,4.48
2018-04-02T00:12:59.157Z,4.50
2018-04-02T00:14:04.678Z,4.54
2018-04-02T00:15:10.441Z,4.57
2018-04-02T00:16:16.188Z,4.58
2018-04-02T00:17:21.965Z,4.59
2018-04-02T00:18:28.481Z,4.64
2018-04-02T00:19:34.232Z,4.68
2018-04-02T00:20:39.983Z,4.69
2018-04-02T00:21:45.740Z,4.72
2018-04-02T00:22:51.537Z,4.71
2018-04-02T00:23:56.974Z,4.72
2018-04-02T00:25:02.931Z,4.71
2018-04-02T00:26:08.673Z,4.71
2018-04-02T00:27:14.422Z,4.71
2018-04-02T00:28:23.950Z,4.74
2018-04-02T00:29:29.689Z,4.74
2018-04-02T00:30:35.437Z,4.72
2018-04-02T00:31:41.192Z,4.69
2018-04-02T00:32:47.725Z,4.65
2018-04-02T00:33:53.496Z,4.60
2018-04-02T00:34:59.255Z,4.56
2018-04-02T00:36:05.759Z,4.52
2018-04-02T00:37:11.517Z,4.50
2018-04-02T00:38:17.262Z,4.45
2018-04-02T00:39:22.812Z,4.43
2018-04-02T00:40:28.564Z,4.39
2018-04-02T00:41:34.851Z,4.39
2018-04-02T00:42:40.596Z,4.35
2018-04-02T00:43:46.375Z,4.33
2018-04-02T00:44:52.152Z,4.29
2018-04-02T00:45:58.669Z,4.27
2018-04-02T00:47:04.416Z,4.22
2018-04-02T00:48:10.166Z,4.20
2018-04-02T00:49:16.692Z,4.20
2018-04-02T00:50:22.448Z,4.21
2018-04-02T00:51:28.460Z,4.21
2018-04-02T00:52:34.252Z,4.18
2018-04-02T00:53:40.018Z,4.15
2018-04-02T00:54:46.539Z,4.14
2018-04-02T00:55:52.312Z,4.11
2018-04-02T00:56:58.064Z,4.09
2018-04-02T00:58:04.591Z,4.08
2018-04-02T00:59:10.345Z,4.07
2018-04-02T01:00:16.096Z,4.08
2018-04-02T01:01:21.640Z,4.07
2018-04-02T01:02:28.889Z,4.07
2018-04-02T01:03:34.641Z,4.06
2018-04-02T01:04:40.406Z,4.03
2018-04-02T01:05:46.686Z,4.01
2018-04-02T01:06:52.481Z,4.01
2018-04-02T01:07:58.236Z,3.99
2018-04-02T01:09:03.959Z,4.00
2018-04-02T01:10:09.702Z,4.00
2018-04-02T01:11:15.456Z,4.01
2018-04-02T01:12:22.723Z,4.00
2018-04-02T01:13:28.479Z,3.99
2018-04-02T01:14:35.006Z,3.95
2018-04-02T01:15:40.752Z,3.97
2018-04-02T01:16:46.501Z,3.95
2018-04-02T01:17:52.263Z,3.95
2018-04-02T01:18:59.055Z,3.92
2018-04-02T01:20:05.242Z,3.93
2018-04-02T01:21:10.985Z,3.92
2018-04-02T01:22:16.723Z,3.92
2018-04-02T01:23:22.633Z,3.87
2018-04-02T01:24:29.138Z,3.87
2018-04-02T01:25:34.890Z,3.86
2018-04-02T01:26:40.637Z,3.86
2018-04-02T01:27:47.889Z,3.85
2018-04-02T01:28:53.653Z,3.83
2018-04-02T01:30:00.248Z,3.82
2018-04-02T01:31:06.549Z,3.81
2018-04-02T01:32:12.305Z,3.81
2018-04-02T01:33:18.044Z,3.82
2018-04-02T01:34:23.813Z,3.82
2018-04-02T01:35:29.560Z,3.84
2018-04-02T01:36:36.064Z,3.83
2018-04-02T01:37:41.816Z,3.80
2018-04-02T01:38:47.556Z,3.80
2018-04-02T01:39:53.326Z,3.81
2018-04-02T01:41:00.587Z,3.79
2018-04-02T01:42:06.341Z,3.78
2018-04-02T01:43:12.097Z,3.75
2018-04-02T01:44:18.612Z,3.72
2018-04-02T01:45:24.377Z,3.68
2018-04-02T01:46:29.916Z,3.67
2018-04-02T01:47:35.669Z,3.67
2018-04-02T01:48:42.176Z,3.65
2018-04-02T01:49:47.927Z,3.63
2018-04-02T01:50:53.718Z,3.62
2018-04-02T01:52:00.232Z,3.63
2018-04-02T01:53:05.984Z,3.63
2018-04-02T01:54:11.737Z,3.64
2018-04-02T01:55:18.260Z,3.64
2018-04-02T01:56:24.034Z,3.62
2018-04-02T01:57:29.782Z,3.62
2018-04-02T01:58:35.542Z,3.61
2018-04-02T01:59:42.092Z,3.60
2018-04-02T02:00:48.615Z,3.59
2018-04-02T02:01:54.390Z,3.59
2018-04-02T02:02:59.913Z,3.60
2018-04-02T02:04:05.660Z,3.58
2018-04-02T02:05:11.413Z,3.56
2018-04-02T02:06:17.720Z,3.56
2018-04-02T02:07:23.685Z,3.57
2018-04-02T02:08:30.100Z,3.55
2018-04-02T02:09:35.858Z,3.56
2018-04-02T02:10:41.617Z,3.55
2018-04-02T02:11:47.369Z,3.54
2018-04-02T02:12:53.150Z,3.55
2018-04-02T02:13:59.677Z,3.55
2018-04-02T02:15:05.104Z,3.57
2018-04-02T02:16:10.524Z,3.57
2018-04-02T02:17:16.268Z,3.57
2018-04-02T02:18:22.032Z,3.58
2018-04-02T02:19:27.780Z,3.58
2018-04-02T02:20:33.298Z,3.59
2018-04-02T02:21:39.042Z,3.59
2018-04-02T02:22:44.565Z,3.58
2018-04-02T02:23:50.388Z,3.58
2018-04-02T02:24:56.300Z,3.58
2018-04-02T02:26:02.805Z,3.58
2018-04-02T02:27:08.548Z,3.58
2018-04-02T02:28:14.293Z,3.58
2018-04-02T02:29:20.069Z,3.59
2018-04-02T02:30:25.829Z,3.58
2018-04-02T02:31:32.343Z,3.57
2018-04-02T02:32:38.121Z,3.56
2018-04-02T02:33:43.859Z,3.55
2018-04-02T02:34:49.637Z,3.55
2018-04-02T02:35:55.394Z,3.54
2018-04-02T02:37:01.133Z,3.53
2018-04-02T02:38:06.884Z,3.54
2018-04-02T02:39:12.634Z,3.53
2018-04-02T02:40:18.404Z,3.52
2018-04-02T02:41:24.934Z,3.51
2018-04-02T02:42:30.670Z,3.48
2018-04-02T02:43:36.439Z,3.46
2018-04-02T02:44:41.953Z,3.43
2018-04-02T02:45:47.722Z,3.42
2018-04-02T02:46:53.238Z,3.40
2018-04-02T02:47:58.742Z,3.38
2018-04-02T02:49:04.485Z,3.38
2018-04-02T02:50:10.238Z,3.38
2018-04-02T02:51:16.000Z,3.40
2018-04-02T02:52:21.750Z,3.40
2018-04-02T02:53:27.502Z,3.39
2018-04-02T02:54:33.254Z,3.38
2018-04-02T02:55:38.993Z,3.37
2018-04-02T02:56:44.766Z,3.35
2018-04-02T02:57:50.514Z,3.33
2018-04-02T02:58:56.253Z,3.32
2018-04-02T03:00:02.004Z,3.30
2018-04-02T03:01:07.932Z,3.28
2018-04-02T03:02:13.927Z,3.27
2018-04-02T03:03:19.869Z,3.26
2018-04-02T03:04:25.622Z,3.24
2018-04-02T03:05:31.573Z,3.25
2018-04-02T03:06:37.312Z,3.23
2018-04-02T03:07:43.853Z,3.22
2018-04-02T03:08:49.608Z,3.19
2018-04-02T03:09:55.371Z,3.18
2018-04-02T03:11:01.887Z,3.17
2018-04-02T03:12:07.629Z,3.16
2018-04-02T03:13:13.398Z,3.17
2018-04-02T03:14:19.682Z,3.16
2018-04-02T03:15:25.423Z,3.16
2018-04-02T03:16:31.175Z,3.15
2018-04-02T03:17:36.918Z,3.14
2018-04-02T03:18:42.709Z,3.14
2018-04-02T03:19:48.455Z,3.11
2018-04-02T03:20:54.991Z,3.10
2018-04-02T03:22:00.736Z,3.08
2018-04-02T03:23:06.489Z,3.08
2018-04-02T03:24:12.256Z,3.07
2018-04-02T03:25:18.771Z,3.07
2018-04-02T03:26:24.521Z,3.04
2018-04-02T03:27:30.265Z,3.05
2018-04-02T03:28:36.013Z,3.02
2018-04-02T03:29:41.776Z,3.02
2018-04-02T03:30:48.286Z,3.02
2018-04-02T03:31:54.047Z,3.01
2018-04-02T03:32:59.792Z,3.00
2018-04-02T03:34:05.537Z,3.02
2018-04-02T03:35:11.300Z,3.02
2018-04-02T03:36:17.822Z,3.01
2018-04-02T03:37:23.562Z,2.99
2018-04-02T03:38:29.308Z,2.96
2018-04-02T03:39:35.110Z,2.93
2018-04-02T03:40:40.880Z,2.92
2018-04-02T03:41:46.624Z,2.92
2018-04-02T03:42:52.391Z,2.91
2018-04-02T03:43:58.906Z,2.90
2018-04-02T03:45:04.658Z,2.87
2018-04-02T03:46:10.426Z,2.86
2018-04-02T03:47:16.168Z,2.84
2018-04-02T03:48:21.918Z,2.84
2018-04-02T03:49:27.910Z,2.82
2018-04-02T03:50:33.656Z,2.83
2018-04-02T03:51:39.436Z,2.82
2018-04-02T03:52:45.182Z,2.81
2018-04-02T03:53:50.974Z,2.81
2018-04-02T03:54:56.715Z,2.82
2018-04-02T03:56:02.464Z,2.81
2018-04-02T03:57:08.245Z,2.80
2018-04-02T03:58:14.002Z,2.80
2018-04-02T03:59:19.760Z,2.78
2018-04-02T04:00:26.294Z,2.76
2018-04-02T04:01:33.550Z,2.76
2018-04-02T04:02:39.328Z,2.74
2018-04-02T04:03:45.860Z,2.74
2018-04-02T04:04:51.596Z,2.75
2018-04-02T04:05:57.349Z,2.77
2018-04-02T04:07:03.100Z,2.76
2018-04-02T04:08:08.881Z,2.78
2018-04-02T04:09:14.660Z,2.77
2018-04-02T04:10:20.413Z,2.77
2018-04-02T04:11:26.160Z,2.78
2018-04-02T04:12:31.916Z,2.78
2018-04-02T04:13:37.689Z,2.77
2018-04-02T04:14:43.439Z,2.75
2018-04-02T04:15:49.184Z,2.73
2018-04-02T04:16:54.937Z,2.73
2018-04-02T04:18:00.716Z,2.73
2018-04-02T04:19:06.484Z,2.72
2018-04-02T04:20:13.023Z,2.71
2018-04-02T04:21:18.773Z,2.70
2018-04-02T04:22:25.284Z,2.70
2018-04-02T04:23:31.037Z,2.70
2018-04-02T04:24:36.812Z,2.68
2018-04-02T04:25:43.335Z,2.68
2018-04-02T04:26:48.522Z,2.69
2018-04-02T04:27:54.273Z,2.68
2018-04-02T04:29:00.017Z,2.68
2018-04-02T04:30:05.795Z,2.68
2018-04-02T04:31:11.615Z,2.66
2018-04-02T04:32:17.130Z,2.67
2018-04-02T04:33:22.882Z,2.66
2018-04-02T04:34:28.634Z,2.63
2018-04-02T04:35:34.420Z,2.60
2018-04-02T04:36:40.169Z,2.61
2018-04-02T04:37:46.692Z,2.60
2018-04-02T04:38:52.448Z,2.59
2018-04-02T04:39:58.213Z,2.58
2018-04-02T04:41:04.085Z,2.59
2018-04-02T04:42:10.053Z,2.59
2018-04-02T04:43:15.824Z,2.63
2018-04-02T04:44:21.572Z,2.65
2018-04-02T04:45:27.404Z,2.69
2018-04-02T04:46:33.181Z,2.72
2018-04-02T04:47:39.711Z,2.78
2018-04-02T04:48:45.455Z,2.85
2018-04-02T04:49:52.933Z,2.92
2018-04-02T04:50:58.692Z,2.97
2018-04-02T04:52:04.462Z,3.04
2018-04-02T04:53:09.980Z,3.09
2018-04-02T04:54:16.512Z,3.15
2018-04-02T04:55:22.260Z,3.19
2018-04-02T04:56:28.016Z,3.25
2018-04-02T04:57:34.328Z,3.30
2018-04-02T04:58:40.079Z,3.37
2018-04-02T04:59:45.821Z,3.43
2018-04-02T05:00:51.590Z,3.47
2018-04-02T05:01:58.849Z,3.51
2018-04-02T05:03:04.624Z,3.55
2018-04-02T05:04:11.137Z,3.59
2018-04-02T05:05:16.670Z,3.62
2018-04-02T05:06:22.415Z,3.66
2018-04-02T05:07:28.172Z,3.68
2018-04-02T05:08:34.713Z,3.71
2018-04-02T05:09:40.492Z,3.74
2018-04-02T05:10:46.422Z,3.77
2018-04-02T05:11:51.970Z,3.82
2018-04-02T05:12:57.727Z,3.88
2018-04-02T05:14:04.292Z,3.94
2018-04-02T05:15:10.807Z,3.97
2018-04-02T05:16:16.563Z,3.99
2018-04-02T05:17:22.317Z,4.03
2018-04-02T05:18:28.506Z,4.06
2018-04-02T05:19:35.045Z,4.10
2018-04-02T05:20:41.567Z,4.11
2018-04-02T05:21:47.084Z,4.16
2018-04-02T05:22:52.854Z,4.17
2018-04-02T05:23:58.780Z,4.19
2018-04-02T05:25:04.552Z,4.19
2018-04-02T05:26:10.302Z,4.23
2018-04-02T05:27:16.817Z,4.25
2018-04-02T05:28:22.565Z,4.25
2018-04-02T05:29:28.331Z,4.30
2018-04-02T05:30:34.856Z,4.36
2018-04-02T05:31:40.608Z,4.41
2018-04-02T05:32:46.354Z,4.43
2018-04-02T05:33:52.092Z,4.43
2018-04-02T05:34:57.841Z,4.45
2018-04-02T05:36:03.608Z,4.45
2018-04-02T05:37:10.132Z,4.46
2018-04-02T05:38:15.874Z,4.48
2018-04-02T05:39:21.616Z,4.53
2018-04-02T05:40:27.368Z,4.56
2018-04-02T05:41:33.136Z,4.58
2018-04-02T05:42:39.684Z,4.62
2018-04-02T05:43:46.919Z,4.63
2018-04-02T05:44:52.672Z,4.63
2018-04-02T05:45:58.481Z,4.68
2018-04-02T05:47:04.259Z,4.66
2018-04-02T05:48:10.022Z,4.68
2018-04-02T05:49:15.776Z,4.71
2018-04-02T05:50:22.292Z,4.72
2018-04-02T05:51:28.047Z,4.74
2018-04-02T05:52:33.841Z,4.76
2018-04-02T05:53:40.349Z,4.77
2018-04-02T05:54:46.096Z,4.78
2018-04-02T05:55:51.845Z,4.84
2018-04-02T05:56:57.600Z,4.86
2018-04-02T05:58:03.917Z,4.86
2018-04-02T05:59:09.931Z,4.88
2018-04-02T06:00:15.685Z,4.93
2018-04-02T06:01:21.732Z,4.98
2018-04-02T06:02:27.487Z,5.01
2018-04-02T06:03:33.277Z,5.05
2018-04-02T06:04:39.032Z,5.08
2018-04-02T06:05:45.545Z,5.09
2018-04-02T06:06:51.321Z,5.12
2018-04-02T06:07:57.834Z,5.13
2018-04-02T06:09:03.136Z,5.15
2018-04-02T06:10:08.889Z,5.17
2018-04-02T06:11:14.436Z,5.19
2018-04-02T06:12:20.175Z,5.22
2018-04-02T06:13:25.929Z,5.23
2018-04-02T06:14:31.389Z,5.22
2018-04-02T06:15:37.132Z,5.28
2018-04-02T06:16:42.916Z,5.31
2018-04-02T06:17:49.606Z,5.34
2018-04-02T06:18:55.358Z,5.36
2018-04-02T06:20:01.128Z,5.39
2018-04-02T06:21:06.875Z,5.43
2018-04-02T06:22:12.620Z,5.46
2018-04-02T06:23:19.142Z,5.46
2018-04-02T06:24:25.014Z,5.47
2018-04-02T06:25:30.811Z,5.50
2018-04-02T06:26:36.564Z,5.53
2018-04-02T06:27:42.308Z,5.55
2018-04-02T06:28:48.061Z,5.58
2018-04-02T06:29:53.812Z,5.60
2018-04-02T06:30:59.585Z,5.62
2018-04-02T06:32:06.115Z,5.67
2018-04-02T06:33:13.368Z,5.73
2018-04-02T06:34:19.121Z,5.76
2018-04-02T06:35:24.873Z,5.78
2018-04-02T06:36:31.427Z,5.81
2018-04-02T06:37:37.176Z,5.81
2018-04-02T06:38:42.931Z,5.81
2018-04-02T06:39:49.444Z,5.82
2018-04-02T06:40:55.188Z,5.82
2018-04-02T06:42:00.964Z,5.82
2018-04-02T06:43:06.749Z,5.83
2018-04-02T06:44:12.790Z,5.84
2018-04-02T06:45:18.537Z,5.88
2018-04-02T06:46:25.505Z,5.89
2018-04-02T06:47:31.068Z,5.95
2018-04-02T06:48:36.816Z,6.00
2018-04-02T06:49:42.555Z,6.02
2018-04-02T06:50:48.297Z,6.02
2018-04-02T06:51:54.049Z,6.02
2018-04-02T06:52:59.816Z,6.06
2018-04-02T06:54:06.206Z,6.08
2018-04-02T06:55:11.952Z,6.07
2018-04-02T06:56:17.717Z,6.09
2018-04-02T06:57:23.467Z,6.11
2018-04-02T06:58:29.032Z,6.09
2018-04-02T06:59:35.539Z,6.08
2018-04-02T07:00:41.072Z,6.10
2018-04-02T07:01:46.830Z,6.15
2018-04-02T07:02:52.581Z,6.18
2018-04-02T07:03:58.360Z,6.19
2018-04-02T07:05:04.637Z,6.22
2018-04-02T07:06:10.394Z,6.20
2018-04-02T07:07:16.380Z,6.15
2018-04-02T07:08:23.629Z,6.16
2018-04-02T07:09:29.421Z,6.13
2018-04-02T07:10:35.930Z,6.11
2018-04-02T07:11:41.680Z,6.06
2018-04-02T07:12:47.445Z,6.08
2018-04-02T07:13:53.952Z,6.10
2018-04-02T07:14:59.729Z,6.12
2018-04-02T07:16:05.141Z,6.17
2018-04-02T07:17:10.885Z,6.18
2018-04-02T07:18:16.624Z,6.19
2018-04-02T07:19:22.385Z,6.16
2018-04-02T07:20:28.149Z,6.18
2018-04-02T07:21:33.996Z,6.19
2018-04-02T07:22:39.571Z,6.21
2018-04-02T07:23:45.342Z,6.21
2018-04-02T07:24:51.098Z,6.21
2018-04-02T07:25:56.870Z,6.27
2018-04-02T07:27:03.388Z,6.28
2018-04-02T07:28:08.919Z,6.24
2018-04-02T07:29:14.684Z,6.18
2018-04-02T07:30:20.428Z,6.17
2018-04-02T07:31:26.964Z,6.13
2018-04-02T07:32:32.720Z,6.13
2018-04-02T07:33:38.456Z,6.15
2018-04-02T07:34:44.216Z,6.21
2018-04-02T07:35:49.972Z,6.27
2018-04-02T07:36:56.506Z,6.33
2018-04-02T07:38:02.268Z,6.38
2018-04-02T07:39:07.135Z,6.45
2018-04-02T07:40:12.879Z,6.52
2018-04-02T07:41:18.628Z,6.57
2018-04-02T07:42:24.388Z,6.60
2018-04-02T07:43:30.137Z,6.64
2018-04-02T07:44:35.975Z,6.71
2018-04-02T07:45:41.770Z,6.78
2018-04-02T07:46:47.517Z,6.81
2018-04-02T07:47:53.061Z,6.86
2018-04-02T07:48:58.591Z,6.86
2018-04-02T07:50:04.460Z,6.85
2018-04-02T07:51:10.208Z,6.86
2018-04-02T07:52:15.972Z,6.86
2018-04-02T07:53:21.512Z,6.87
2018-04-02T07:54:27.256Z,6.85
2018-04-02T07:55:33.774Z,6.84
2018-04-02T07:56:39.518Z,6.83
2018-04-02T07:57:45.276Z,6.83
2018-04-02T07:58:51.824Z,6.81
2018-04-02T07:59:57.579Z,6.79
2018-04-02T08:01:03.334Z,6.76
2018-04-02T08:02:09.131Z,6.74
2018-04-02T08:03:14.907Z,6.72
2018-04-02T08:04:20.732Z,6.73
2018-04-02T08:05:27.414Z,6.74
2018-04-02T08:06:33.931Z,6.79
2018-04-02T08:07:40.277Z,6.86
2018-04-02T08:08:46.027Z,6.94
2018-04-02T08:09:51.809Z,7.01
2018-04-02T08:10:57.564Z,7.05
2018-04-02T08:12:03.319Z,7.13
2018-04-02T08:13:09.844Z,7.25
2018-04-02T08:14:15.713Z,7.40
2018-04-02T08:15:21.493Z,7.52
2018-04-02T08:16:28.017Z,7.65
2018-04-02T08:17:33.584Z,7.82
2018-04-02T08:18:39.337Z,7.96
2018-04-02T08:19:44.861Z,8.18
2018-04-02T08:20:50.388Z,8.41
2018-04-02T08:21:56.140Z,8.77
2018-04-02T08:23:01.681Z,9.24
2018-04-02T08:24:07.556Z,9.72
2018-04-02T08:25:13.325Z,10.19
2018-04-02T08:26:20.394Z,10.72
2018-04-02T08:27:26.995Z,11.24
2018-04-02T08:28:32.797Z,11.73
2018-04-02T08:29:38.882Z,12.23
2018-04-02T08:30:44.830Z,12.70
2018-04-02T08:31:50.846Z,13.04
2018-04-02T08:32:57.514Z,13.44
2018-04-02T08:34:04.205Z,13.83
2018-04-02T08:35:10.251Z,14.26
2018-04-02T08:36:16.293Z,14.73
2018-04-02T08:37:23.287Z,15.03
2018-04-02T08:38:29.162Z,15.46
2018-04-02T08:39:34.921Z,15.81
2018-04-02T08:40:40.462Z,16.13
2018-04-02T08:41:47.029Z,16.55
2018-04-02T08:42:54.024Z,16.85
2018-04-02T08:43:59.865Z,17.17
2018-04-02T08:45:05.681Z,17.55
2018-04-02T08:46:11.506Z,17.79
2018-04-02T08:47:17.297Z,17.82
2018-04-02T08:48:23.074Z,18.04
2018-04-02T08:49:28.893Z,18.34
2018-04-02T08:50:34.664Z,18.61
2018-04-02T08:51:40.438Z,18.73
2018-04-02T08:52:46.959Z,18.89
2018-04-02T08:53:52.752Z,18.81
2018-04-02T08:54:59.269Z,18.82
2018-04-02T08:56:05.043Z,19.04
2018-04-02T08:57:10.475Z,19.07
2018-04-02T08:58:17.017Z,19.19
2018-04-02T08:59:22.578Z,19.33
2018-04-02T09:00:29.108Z,19.58
2018-04-02T09:01:34.643Z,19.80
2018-04-02T09:02:40.417Z,19.81
2018-04-02T09:03:47.047Z,20.08
2018-04-02T09:04:52.833Z,20.21
2018-04-02T09:05:58.603Z,20.52
2018-04-02T09:07:04.403Z,20.66
2018-04-02T09:08:10.342Z,20.69
2018-04-02T09:09:16.928Z,20.64
2018-04-02T09:10:22.716Z,20.76
2018-04-02T09:11:28.527Z,20.73
2018-04-02T09:12:34.365Z,20.80
2018-04-02T09:13:40.232Z,21.00
2018-04-02T09:14:46.005Z,21.29
2018-04-02T09:15:52.579Z,21.38
2018-04-02T09:16:59.102Z,21.32
2018-04-02T09:18:04.881Z,21.34
2018-04-02T09:19:11.486Z,21.45
2018-04-02T09:20:17.232Z,21.63
2018-04-02T09:21:23.027Z,21.83
2018-04-02T09:22:29.322Z,22.13
2018-04-02T09:23:35.715Z,21.93
2018-04-02T09:24:41.239Z,21.74
2018-04-02T09:25:47.001Z,21.58
2018-04-02T09:26:52.574Z,21.85
2018-04-02T09:27:58.272Z,21.94
2018-04-02T09:29:05.592Z,21.91
2018-04-02T09:30:11.372Z,21.63
2018-04-02T09:31:16.722Z,21.39
2018-04-02T09:32:22.520Z,21.34
2018-04-02T09:33:28.080Z,21.18
2018-04-02T09:34:33.621Z,21.27
2018-04-02T09:35:39.360Z,21.35
2018-04-02T09:36:45.135Z,21.19
2018-04-02T09:37:50.911Z,20.91
2018-04-02T09:38:56.739Z,20.69
2018-04-02T09:40:03.255Z,20.41
2018-04-02T09:41:08.692Z,20.29
2018-04-02T09:42:14.455Z,20.33
2018-04-02T09:43:20.241Z,20.53
2018-04-02T09:44:26.003Z,20.78
2018-04-02T09:45:31.796Z,20.98
2018-04-02T09:46:37.311Z,21.11
2018-04-02T09:47:43.089Z,21.06
2018-04-02T09:48:48.901Z,20.79
2018-04-02T09:49:54.657Z,20.46
2018-04-02T09:51:01.440Z,20.25
2018-04-02T09:52:07.401Z,19.94
2018-04-02T09:53:13.312Z,19.54
2018-04-02T09:54:20.105Z,19.30
2018-04-02T09:55:26.043Z,19.32
2018-04-02T09:56:31.800Z,19.39
2018-04-02T09:57:37.558Z,19.39
2018-04-02T09:58:43.348Z,19.38
2018-04-02T09:59:49.167Z,19.10
2018-04-02T10:01:00.290Z,18.84
2018-04-02T10:02:11.509Z,18.89
2018-04-02T10:03:17.038Z,18.87
2018-04-02T10:04:37.484Z,18.74
2018-04-02T10:05:44.719Z,18.56
2018-04-02T10:06:51.242Z,18.26
2018-04-02T10:07:57.004Z,18.09
2018-04-02T10:09:03.296Z,17.89
2018-04-02T10:10:09.106Z,17.67
2018-04-02T10:11:15.103Z,17.30
2018-04-02T10:12:20.867Z,17.11
2018-04-02T10:13:26.621Z,16.82
2018-04-02T10:14:33.148Z,16.77
2018-04-02T10:15:38.933Z,16.63
2018-04-02T10:16:44.940Z,16.44
2018-04-02T10:17:50.766Z,16.25
2018-04-02T10:18:56.551Z,16.06
2018-04-02T10:20:02.089Z,15.85
2018-04-02T10:21:07.854Z,15.66
2018-04-02T10:22:14.416Z,15.33
2018-04-02T10:23:20.952Z,15.13
2018-04-02T10:24:27.501Z,15.08
2018-04-02T10:25:33.269Z,14.85
2018-04-02T10:26:39.864Z,14.65
2018-04-02T10:27:45.648Z,14.58
2018-04-02T10:28:51.401Z,14.52
2018-04-02T10:29:57.482Z,14.64
2018-04-02T10:31:04.104Z,14.80
2018-04-02T10:32:10.111Z,14.85
2018-04-02T10:33:16.837Z,14.92
2018-04-02T10:34:22.593Z,14.91
2018-04-02T10:35:29.141Z,14.93
2018-04-02T10:36:34.900Z,15.06
2018-04-02T10:37:41.429Z,15.17
2018-04-02T10:38:47.213Z,15.27
2018-04-02T10:39:52.968Z,15.37
2018-04-02T10:40:58.732Z,15.53
2018-04-02T10:42:04.497Z,15.63
2018-04-02T10:43:10.265Z,15.68
2018-04-02T10:44:16.595Z,15.75
2018-04-02T10:45:23.131Z,15.81
2018-04-02T10:46:28.923Z,15.81
2018-04-02T10:47:35.397Z,15.73
2018-04-02T10:48:41.205Z,15.62
2018-04-02T10:49:46.932Z,15.66
2018-04-02T10:50:52.704Z,15.72
2018-04-02T10:51:59.242Z,15.74
2018-04-02T10:53:04.997Z,15.72
2018-04-02T10:54:11.538Z,15.66
2018-04-02T10:55:18.863Z,15.55
2018-04-02T10:56:24.659Z,15.43
2018-04-02T10:57:30.856Z,15.32
2018-04-02T10:58:36.621Z,15.23
2018-04-02T10:59:42.446Z,15.11
2018-04-02T11:00:48.394Z,15.00
2018-04-02T11:01:54.146Z,14.88
2018-04-02T11:02:59.921Z,14.79
2018-04-02T11:04:05.685Z,14.70
2018-04-02T11:05:12.466Z,14.74
2018-04-02T11:06:19.145Z,14.66
2018-04-02T11:07:25.160Z,14.53
2018-04-02T11:08:31.137Z,14.47
2018-04-02T11:09:37.390Z,14.49
2018-04-02T11:10:43.434Z,14.47
2018-04-02T11:11:49.272Z,14.44
2018-04-02T11:12:55.070Z,14.32
2018-04-02T11:14:01.770Z,14.24
2018-04-02T11:15:07.719Z,14.20
2018-04-02T11:16:13.477Z,14.21
2018-04-02T11:17:19.279Z,14.18
2018-04-02T11:18:25.207Z,14.15
2018-04-02T11:19:31.197Z,14.15
2018-04-02T11:20:36.952Z,14.18
2018-04-02T11:21:42.828Z,14.18
2018-04-02T11:22:48.828Z,14.13
2018-04-02T11:23:54.787Z,14.11
2018-04-02T11:25:01.074Z,13.98
2018-04-02T11:26:06.694Z,13.95
2018-04-02T11:27:12.463Z,13.92
2018-04-02T11:28:18.249Z,13.86
2018-04-02T11:29:24.827Z,13.80
2018-04-02T11:30:30.624Z,13.89
2018-04-02T11:31:36.385Z,13.98
2018-04-02T11:32:42.911Z,14.03
2018-04-02T11:33:48.695Z,14.09
2018-04-02T11:34:54.458Z,14.11
2018-04-02T11:36:00.220Z,14.16
2018-04-02T11:37:06.405Z,14.23
2018-04-02T11:38:11.924Z,14.42
2018-04-02T11:39:17.907Z,14.55
2018-04-02T11:40:24.461Z,14.59
2018-04-02T11:41:30.994Z,14.76
2018-04-02T11:42:36.772Z,14.92
2018-04-02T11:43:42.772Z,15.00
2018-04-02T11:44:49.802Z,15.03
2018-04-02T11:45:55.561Z,15.11
2018-04-02T11:47:01.324Z,15.02
2018-04-02T11:48:07.143Z,14.98
2018-04-02T11:49:13.840Z,14.98
2018-04-02T11:50:19.690Z,15.04
2018-04-02T11:51:25.468Z,15.03
2018-04-02T11:52:32.041Z,15.05
2018-04-02T11:53:37.812Z,15.20
2018-04-02T11:54:43.652Z,15.29
2018-04-02T11:55:49.462Z,15.34
2018-04-02T11:56:55.244Z,15.50
2018-04-02T11:58:01.040Z,15.57
2018-04-02T11:59:07.001Z,15.65
2018-04-02T12:00:12.763Z,15.72
2018-04-02T12:01:18.558Z,15.72
2018-04-02T12:02:25.114Z,15.76
2018-04-02T12:03:31.724Z,15.81
2018-04-02T12:04:37.728Z,15.82
2018-04-02T12:05:44.323Z,15.66
2018-04-02T12:06:50.115Z,15.55
2018-04-02T12:07:55.886Z,15.55
2018-04-02T12:09:01.661Z,15.52
2018-04-02T12:10:07.794Z,15.52
2018-04-02T12:11:14.045Z,15.46
2018-04-02T12:12:19.864Z,15.41
2018-04-02T12:13:26.183Z,15.37
2018-04-02T12:14:32.166Z,15.37
2018-04-02T12:15:39.480Z,15.19
2018-04-02T12:16:45.399Z,15.04
2018-04-02T12:17:51.359Z,14.95
2018-04-02T12:18:57.157Z,15.03
2018-04-02T12:20:02.963Z,15.12
2018-04-02T12:21:09.435Z,15.19
2018-04-02T12:22:15.303Z,15.33
2018-04-02T12:23:20.984Z,15.28
2018-04-02T12:24:26.835Z,15.25
2018-04-02T12:25:35.157Z,15.36
2018-04-02T12:26:40.908Z,15.30
2018-04-02T12:27:47.633Z,15.42
2018-04-02T12:28:53.621Z,15.40
2018-04-02T12:29:59.394Z,15.28
2018-04-02T12:31:05.937Z,15.24
2018-04-02T12:32:12.713Z,15.22
2018-04-02T12:33:19.248Z,15.21
2018-04-02T12:34:25.121Z,15.20
2018-04-02T12:35:32.081Z,15.29
2018-04-02T12:36:39.627Z,15.42
2018-04-02T12:37:45.389Z,15.34
2018-04-02T12:38:51.165Z,15.27
2018-04-02T12:39:57.773Z,15.35
2018-04-02T12:41:03.770Z,15.40
2018-04-02T12:42:10.384Z,15.40
2018-04-02T12:43:16.195Z,15.35
2018-04-02T12:44:23.142Z,15.28
2018-04-02T12:45:29.129Z,15.16
2018-04-02T12:46:35.113Z,15.10
2018-04-02T12:47:40.892Z,15.07
2018-04-02T12:48:46.655Z,15.12
2018-04-02T12:49:52.420Z,15.19
2018-04-02T12:50:58.910Z,15.27
2018-04-02T12:52:04.483Z,15.33
2018-04-02T12:53:10.265Z,15.34
2018-04-02T12:54:16.076Z,15.36
2018-04-02T12:55:21.837Z,15.44
2018-04-02T12:56:27.638Z,15.48
2018-04-02T12:57:34.278Z,15.51
2018-04-02T12:58:40.054Z,15.57
2018-04-02T12:59:45.848Z,15.58
2018-04-02T13:00:51.630Z,15.48
2018-04-02T13:01:57.435Z,15.39
2018-04-02T13:03:04.748Z,15.39
2018-04-02T13:04:10.947Z,15.39
2018-04-02T13:05:16.403Z,15.45
2018-04-02T13:06:23.773Z,15.48
2018-04-02T13:07:29.560Z,15.51
2018-04-02T13:08:35.335Z,15.47
2018-04-02T13:09:41.102Z,15.42
2018-04-02T13:10:46.896Z,15.43
2018-04-02T13:11:53.605Z,15.48
2018-04-02T13:12:59.412Z,15.40
2018-04-02T13:14:06.644Z,15.40
2018-04-02T13:15:13.244Z,15.46
2018-04-02T13:16:19.124Z,15.51
2018-04-02T13:17:24.978Z,15.61
2018-04-02T13:18:31.707Z,15.63
2018-04-02T13:19:38.455Z,15.58
2018-04-02T13:20:45.121Z,15.56
2018-04-02T13:21:50.979Z,15.43
2018-04-02T13:22:56.881Z,15.37
2018-04-02T13:24:04.401Z,15.36
2018-04-02T13:25:10.234Z,15.39
2018-04-02T13:26:16.262Z,15.42
2018-04-02T13:27:23.051Z,15.39
2018-04-02T13:28:29.947Z,15.45
2018-04-02T13:29:36.562Z,15.50
2018-04-02T13:30:43.250Z,15.50
2018-04-02T13:31:49.715Z,15.48
2018-04-02T13:32:56.305Z,15.57
2018-04-02T13:34:02.230Z,15.65
2018-04-02T13:35:08.053Z,15.69
2018-04-02T13:36:15.806Z,15.80
2018-04-02T13:37:21.578Z,15.80
2018-04-02T13:38:28.203Z,15.79
2018-04-02T13:39:33.974Z,15.76
2018-04-02T13:40:39.777Z,15.83
2018-04-02T13:41:45.564Z,15.86
2018-04-02T13:42:52.126Z,15.93
2018-04-02T13:43:58.649Z,15.94
2018-04-02T13:45:04.418Z,15.78
2018-04-02T13:46:11.322Z,15.55
2018-04-02T13:47:18.210Z,15.40
2018-04-02T13:48:23.973Z,15.29
2018-04-02T13:49:29.748Z,15.31
2018-04-02T13:50:37.277Z,15.35
2018-04-02T13:51:43.140Z,15.30
2018-04-02T13:52:49.604Z,15.25
2018-04-02T13:53:55.447Z,15.21
2018-04-02T13:55:02.497Z,15.18
2018-04-02T13:56:08.481Z,15.19
2018-04-02T13:57:14.774Z,15.32
2018-04-02T13:58:20.722Z,15.42
2018-04-02T13:59:27.281Z,15.51
2018-04-02T14:00:33.283Z,15.59
2018-04-02T14:01:40.104Z,15.69
2018-04-02T14:02:46.151Z,15.76
2018-04-02T14:03:52.188Z,15.78
2018-04-02T14:04:58.671Z,15.80
2018-04-02T14:06:04.529Z,15.83
2018-04-02T14:07:10.529Z,15.77
2018-04-02T14:08:17.337Z,15.83
2018-04-02T14:09:23.577Z,15.70
2018-04-02T14:10:29.158Z,15.66
2018-04-02T14:11:35.732Z,15.61
2018-04-02T14:12:42.321Z,15.57
2018-04-02T14:13:48.129Z,15.51
2018-04-02T14:14:54.665Z,15.43
2018-04-02T14:16:01.054Z,15.44
2018-04-02T14:17:07.129Z,15.43
2018-04-02T14:18:13.005Z,15.43
2018-04-02T14:19:20.766Z,15.46
2018-04-02T14:20:26.564Z,15.46
2018-04-02T14:21:32.506Z,15.43
2018-04-02T14:22:38.508Z,15.34
2018-04-02T14:23:44.878Z,15.27
2018-04-02T14:24:50.758Z,15.29
2018-04-02T14:25:56.699Z,15.41
2018-04-02T14:27:02.547Z,15.46